sensor_id;sensor_type;location;lat;lon;timestamp;temperature;humidity
75769;DHT22;64379;48.888;8.330;2022-10-31T00:01:36;11.00;82.70
75769;DHT22;64379;48.888;8.330;2022-10-31T00:04:02;10.80;82.90
75769;DHT22;64379;48.888;8.330;2022-10-31T00:06:28;10.70;83.20
75769;DHT22;64379;48.888;8.330;2022-10-31T00:08:55;10.60;83.70
75769;DHT22;64379;48.888;8.330;2022-10-31T00:11:21;10.70;83.80
75769;DHT22;64379;48.888;8.330;2022-10-31T00:13:47;10.80;83.50
75769;DHT22;64379;48.888;8.330;2022-10-31T00:16:17;10.90;83.20
75769;DHT22;64379;48.888;8.330;2022-10-31T00:18:47;11.00;83.20
75769;DHT22;64379;48.888;8.330;2022-10-31T00:21:12;11.00;83.00
75769;DHT22;64379;48.888;8.330;2022-10-31T00:23:38;11.00;83.20
75769;DHT22;64379;48.888;8.330;2022-10-31T00:26:04;11.00;82.90
75769;DHT22;64379;48.888;8.330;2022-10-31T00:28:32;10.90;82.50
75769;DHT22;64379;48.888;8.330;2022-10-31T00:31:07;10.70;82.10
75769;DHT22;64379;48.888;8.330;2022-10-31T00:33:34;10.50;82.60
75769;DHT22;64379;48.888;8.330;2022-10-31T00:36:00;10.50;83.00
75769;DHT22;64379;48.888;8.330;2022-10-31T00:38:26;10.50;83.30
75769;DHT22;64379;48.888;8.330;2022-10-31T00:40:51;10.50;83.10
75769;DHT22;64379;48.888;8.330;2022-10-31T00:43:17;10.50;83.10
75769;DHT22;64379;48.888;8.330;2022-10-31T00:45:43;10.40;82.70
75769;DHT22;64379;48.888;8.330;2022-10-31T00:48:09;10.30;82.90
75769;DHT22;64379;48.888;8.330;2022-10-31T00:50:35;10.20;83.30
75769;DHT22;64379;48.888;8.330;2022-10-31T00:53:01;10.20;83.00
75769;DHT22;64379;48.888;8.330;2022-10-31T00:55:27;10.20;83.10
75769;DHT22;64379;48.888;8.330;2022-10-31T00:57:52;10.20;82.70
75769;DHT22;64379;48.888;8.330;2022-10-31T01:00:18;10.20;82.60
75769;DHT22;64379;48.888;8.330;2022-10-31T01:02:43;10.10;82.10
75769;DHT22;64379;48.888;8.330;2022-10-31T01:05:09;10.00;82.20
75769;DHT22;64379;48.888;8.330;2022-10-31T01:07:39;9.90;82.50
75769;DHT22;64379;48.888;8.330;2022-10-31T01:10:05;9.80;82.80
75769;DHT22;64379;48.888;8.330;2022-10-31T01:12:42;9.80;83.00
75769;DHT22;64379;48.888;8.330;2022-10-31T01:15:10;9.70;83.30
75769;DHT22;64379;48.888;8.330;2022-10-31T01:17:36;9.70;83.10
75769;DHT22;64379;48.888;8.330;2022-10-31T01:20:03;9.70;83.40
75769;DHT22;64379;48.888;8.330;2022-10-31T01:22:29;9.80;83.60
75769;DHT22;64379;48.888;8.330;2022-10-31T01:24:54;9.90;83.40
75769;DHT22;64379;48.888;8.330;2022-10-31T01:27:20;10.00;83.60
75769;DHT22;64379;48.888;8.330;2022-10-31T01:29:45;10.00;83.10
75769;DHT22;64379;48.888;8.330;2022-10-31T01:32:11;9.80;83.30
75769;DHT22;64379;48.888;8.330;2022-10-31T01:34:36;9.80;84.20
75769;DHT22;64379;48.888;8.330;2022-10-31T01:37:02;10.00;84.00
75769;DHT22;64379;48.888;8.330;2022-10-31T01:39:27;10.00;83.90
75769;DHT22;64379;48.888;8.330;2022-10-31T01:41:56;10.00;84.20
75769;DHT22;64379;48.888;8.330;2022-10-31T01:46:58;9.70;83.20
75769;DHT22;64379;48.888;8.330;2022-10-31T01:52:38;9.60;84.30
75769;DHT22;64379;48.888;8.330;2022-10-31T01:57:40;9.50;85.00
75769;DHT22;64379;48.888;8.330;2022-10-31T02:00:10;9.70;85.30
75769;DHT22;64379;48.888;8.330;2022-10-31T02:02:36;9.90;84.50
75769;DHT22;64379;48.888;8.330;2022-10-31T02:05:06;10.00;84.20
75769;DHT22;64379;48.888;8.330;2022-10-31T02:07:46;10.00;83.60
75769;DHT22;64379;48.888;8.330;2022-10-31T02:10:13;10.00;83.90
75769;DHT22;64379;48.888;8.330;2022-10-31T02:12:40;10.00;83.50
75769;DHT22;64379;48.888;8.330;2022-10-31T02:15:07;9.90;83.90
75769;DHT22;64379;48.888;8.330;2022-10-31T02:17:33;10.00;83.20
75769;DHT22;64379;48.888;8.330;2022-10-31T02:20:18;9.80;82.60
75769;DHT22;64379;48.888;8.330;2022-10-31T02:25:45;9.70;83.30
75769;DHT22;64379;48.888;8.330;2022-10-31T02:33:53;9.70;82.90
75769;DHT22;64379;48.888;8.330;2022-10-31T02:36:29;9.60;83.10
75769;DHT22;64379;48.888;8.330;2022-10-31T02:39:25;9.50;83.30
75769;DHT22;64379;48.888;8.330;2022-10-31T02:44:41;9.50;84.00
75769;DHT22;64379;48.888;8.330;2022-10-31T02:47:14;9.50;83.30
75769;DHT22;64379;48.888;8.330;2022-10-31T02:50:00;9.40;83.90
75769;DHT22;64379;48.888;8.330;2022-10-31T02:52:32;9.30;84.10
75769;DHT22;64379;48.888;8.330;2022-10-31T02:54:58;9.30;84.50
75769;DHT22;64379;48.888;8.330;2022-10-31T02:57:32;9.40;84.50
75769;DHT22;64379;48.888;8.330;2022-10-31T03:00:04;9.30;84.30
75769;DHT22;64379;48.888;8.330;2022-10-31T03:05:58;9.50;84.00
75769;DHT22;64379;48.888;8.330;2022-10-31T03:11:06;9.50;84.00
75769;DHT22;64379;48.888;8.330;2022-10-31T03:16:29;9.40;84.00
75769;DHT22;64379;48.888;8.330;2022-10-31T03:19:08;9.40;84.20
75769;DHT22;64379;48.888;8.330;2022-10-31T03:24:03;9.40;83.70
75769;DHT22;64379;48.888;8.330;2022-10-31T03:26:30;9.40;84.00
75769;DHT22;64379;48.888;8.330;2022-10-31T03:29:05;9.40;83.90
75769;DHT22;64379;48.888;8.330;2022-10-31T03:31:54;9.20;84.40
75769;DHT22;64379;48.888;8.330;2022-10-31T03:34:21;9.20;84.50
75769;DHT22;64379;48.888;8.330;2022-10-31T03:36:50;9.10;84.80
75769;DHT22;64379;48.888;8.330;2022-10-31T03:39:19;9.20;84.40
75769;DHT22;64379;48.888;8.330;2022-10-31T03:41:53;9.40;83.90
75769;DHT22;64379;48.888;8.330;2022-10-31T03:44:21;9.40;84.00
75769;DHT22;64379;48.888;8.330;2022-10-31T03:46:47;9.30;83.60
75769;DHT22;64379;48.888;8.330;2022-10-31T03:49:14;9.20;83.90
75769;DHT22;64379;48.888;8.330;2022-10-31T03:51:47;9.20;83.70
75769;DHT22;64379;48.888;8.330;2022-10-31T03:56:45;9.10;84.20
75769;DHT22;64379;48.888;8.330;2022-10-31T03:59:21;9.10;83.90
75769;DHT22;64379;48.888;8.330;2022-10-31T04:01:52;9.10;84.20
75769;DHT22;64379;48.888;8.330;2022-10-31T04:04:20;9.00;84.30
75769;DHT22;64379;48.888;8.330;2022-10-31T04:06:46;9.00;84.40
75769;DHT22;64379;48.888;8.330;2022-10-31T04:09:13;9.00;84.50
75769;DHT22;64379;48.888;8.330;2022-10-31T04:11:46;9.00;84.70
75769;DHT22;64379;48.888;8.330;2022-10-31T04:14:13;9.10;84.60
75769;DHT22;64379;48.888;8.330;2022-10-31T04:16:42;9.00;84.50
75769;DHT22;64379;48.888;8.330;2022-10-31T04:19:08;9.00;84.50
75769;DHT22;64379;48.888;8.330;2022-10-31T04:21:33;9.20;84.30
75769;DHT22;64379;48.888;8.330;2022-10-31T04:23:59;9.00;83.70
75769;DHT22;64379;48.888;8.330;2022-10-31T04:26:25;8.90;84.30
75769;DHT22;64379;48.888;8.330;2022-10-31T04:28:51;9.00;84.60
75769;DHT22;64379;48.888;8.330;2022-10-31T04:31:17;9.00;84.00
75769;DHT22;64379;48.888;8.330;2022-10-31T04:33:42;9.00;84.50
75769;DHT22;64379;48.888;8.330;2022-10-31T04:36:08;9.00;84.20
75769;DHT22;64379;48.888;8.330;2022-10-31T04:38:34;9.20;84.10
75769;DHT22;64379;48.888;8.330;2022-10-31T04:40:59;9.20;84.10
75769;DHT22;64379;48.888;8.330;2022-10-31T04:43:25;8.90;84.20
75769;DHT22;64379;48.888;8.330;2022-10-31T04:45:50;8.60;85.50
75769;DHT22;64379;48.888;8.330;2022-10-31T04:48:16;8.90;86.10
75769;DHT22;64379;48.888;8.330;2022-10-31T04:50:42;9.00;85.70
75769;DHT22;64379;48.888;8.330;2022-10-31T04:53:07;9.00;84.80
75769;DHT22;64379;48.888;8.330;2022-10-31T04:55:34;9.00;84.70
75769;DHT22;64379;48.888;8.330;2022-10-31T04:58:00;9.00;84.20
75769;DHT22;64379;48.888;8.330;2022-10-31T05:00:25;9.00;84.10
75769;DHT22;64379;48.888;8.330;2022-10-31T05:02:56;9.00;84.30
75769;DHT22;64379;48.888;8.330;2022-10-31T05:05:24;9.00;83.90
75769;DHT22;64379;48.888;8.330;2022-10-31T05:07:51;8.90;83.70
75769;DHT22;64379;48.888;8.330;2022-10-31T05:10:19;8.80;84.20
75769;DHT22;64379;48.888;8.330;2022-10-31T05:12:46;8.80;83.50
75769;DHT22;64379;48.888;8.330;2022-10-31T05:15:13;8.70;83.50
75769;DHT22;64379;48.888;8.330;2022-10-31T05:17:38;8.60;83.70
75769;DHT22;64379;48.888;8.330;2022-10-31T05:20:04;8.70;84.10
75769;DHT22;64379;48.888;8.330;2022-10-31T05:22:30;8.90;83.70
75769;DHT22;64379;48.888;8.330;2022-10-31T05:24:56;8.80;84.10
75769;DHT22;64379;48.888;8.330;2022-10-31T05:27:21;8.90;84.40
75769;DHT22;64379;48.888;8.330;2022-10-31T05:29:47;8.80;83.60
75769;DHT22;64379;48.888;8.330;2022-10-31T05:32:12;8.70;83.00
75769;DHT22;64379;48.888;8.330;2022-10-31T05:34:38;8.60;83.10
75769;DHT22;64379;48.888;8.330;2022-10-31T05:37:03;8.60;83.20
75769;DHT22;64379;48.888;8.330;2022-10-31T05:39:29;8.50;83.00
75769;DHT22;64379;48.888;8.330;2022-10-31T05:41:55;8.50;83.30
75769;DHT22;64379;48.888;8.330;2022-10-31T05:44:20;8.40;83.40
75769;DHT22;64379;48.888;8.330;2022-10-31T05:46:46;8.30;83.60
75769;DHT22;64379;48.888;8.330;2022-10-31T05:49:12;8.30;84.00
75769;DHT22;64379;48.888;8.330;2022-10-31T05:51:37;8.40;83.80
75769;DHT22;64379;48.888;8.330;2022-10-31T05:54:03;8.40;84.00
75769;DHT22;64379;48.888;8.330;2022-10-31T05:56:29;8.40;83.90
75769;DHT22;64379;48.888;8.330;2022-10-31T05:58:54;8.40;84.00
75769;DHT22;64379;48.888;8.330;2022-10-31T06:01:20;8.50;83.60
75769;DHT22;64379;48.888;8.330;2022-10-31T06:03:45;8.50;83.30
75769;DHT22;64379;48.888;8.330;2022-10-31T06:06:11;8.40;83.50
75769;DHT22;64379;48.888;8.330;2022-10-31T06:08:37;8.40;83.80
75769;DHT22;64379;48.888;8.330;2022-10-31T06:11:02;8.30;84.90
75769;DHT22;64379;48.888;8.330;2022-10-31T06:13:28;8.40;85.00
75769;DHT22;64379;48.888;8.330;2022-10-31T06:15:53;8.40;85.10
75769;DHT22;64379;48.888;8.330;2022-10-31T06:18:19;8.50;84.60
75769;DHT22;64379;48.888;8.330;2022-10-31T06:20:45;8.50;84.70
75769;DHT22;64379;48.888;8.330;2022-10-31T06:23:10;8.60;84.90
75769;DHT22;64379;48.888;8.330;2022-10-31T06:25:36;8.60;85.00
75769;DHT22;64379;48.888;8.330;2022-10-31T06:28:01;8.60;84.70
75769;DHT22;64379;48.888;8.330;2022-10-31T06:30:27;8.80;84.50
75769;DHT22;64379;48.888;8.330;2022-10-31T06:32:52;8.80;83.60
75769;DHT22;64379;48.888;8.330;2022-10-31T06:35:20;8.60;83.00
75769;DHT22;64379;48.888;8.330;2022-10-31T06:37:53;8.60;82.70
75769;DHT22;64379;48.888;8.330;2022-10-31T06:40:19;8.60;82.80
75769;DHT22;64379;48.888;8.330;2022-10-31T06:42:44;8.60;82.20
75769;DHT22;64379;48.888;8.330;2022-10-31T06:45:10;8.60;82.30
75769;DHT22;64379;48.888;8.330;2022-10-31T06:47:36;8.60;83.00
75769;DHT22;64379;48.888;8.330;2022-10-31T06:50:01;8.60;83.30
75769;DHT22;64379;48.888;8.330;2022-10-31T06:52:27;8.60;83.30
75769;DHT22;64379;48.888;8.330;2022-10-31T06:54:52;8.60;83.00
75769;DHT22;64379;48.888;8.330;2022-10-31T06:57:18;8.80;83.40
75769;DHT22;64379;48.888;8.330;2022-10-31T06:59:43;8.80;84.10
75769;DHT22;64379;48.888;8.330;2022-10-31T07:02:09;8.90;84.70
75769;DHT22;64379;48.888;8.330;2022-10-31T07:04:35;9.00;84.80
75769;DHT22;64379;48.888;8.330;2022-10-31T07:07:01;9.10;84.50
75769;DHT22;64379;48.888;8.330;2022-10-31T07:09:26;9.20;84.90
75769;DHT22;64379;48.888;8.330;2022-10-31T07:11:53;9.20;84.60
75769;DHT22;64379;48.888;8.330;2022-10-31T07:14:19;9.20;84.60
75769;DHT22;64379;48.888;8.330;2022-10-31T07:16:48;9.30;84.80
75769;DHT22;64379;48.888;8.330;2022-10-31T07:19:15;9.50;84.30
75769;DHT22;64379;48.888;8.330;2022-10-31T07:21:40;9.60;84.10
75769;DHT22;64379;48.888;8.330;2022-10-31T07:24:06;9.60;84.80
75769;DHT22;64379;48.888;8.330;2022-10-31T07:26:31;9.80;85.00
75769;DHT22;64379;48.888;8.330;2022-10-31T07:28:57;9.90;83.80
75769;DHT22;64379;48.888;8.330;2022-10-31T07:31:24;10.10;83.20
75769;DHT22;64379;48.888;8.330;2022-10-31T07:33:50;10.20;82.90
75769;DHT22;64379;48.888;8.330;2022-10-31T07:36:16;10.30;83.20
75769;DHT22;64379;48.888;8.330;2022-10-31T07:38:41;10.40;83.00
75769;DHT22;64379;48.888;8.330;2022-10-31T07:41:07;10.50;82.50
75769;DHT22;64379;48.888;8.330;2022-10-31T07:43:32;10.60;82.20
75769;DHT22;64379;48.888;8.330;2022-10-31T07:45:58;10.70;82.00
75769;DHT22;64379;48.888;8.330;2022-10-31T07:48:26;10.70;82.60
75769;DHT22;64379;48.888;8.330;2022-10-31T07:50:51;10.70;82.80
75769;DHT22;64379;48.888;8.330;2022-10-31T07:53:17;10.90;82.10
75769;DHT22;64379;48.888;8.330;2022-10-31T07:55:43;10.90;81.70
75769;DHT22;64379;48.888;8.330;2022-10-31T07:58:11;11.10;81.30
75769;DHT22;64379;48.888;8.330;2022-10-31T08:00:38;11.20;81.10
75769;DHT22;64379;48.888;8.330;2022-10-31T08:03:12;11.30;80.60
75769;DHT22;64379;48.888;8.330;2022-10-31T08:05:38;11.40;80.60
75769;DHT22;64379;48.888;8.330;2022-10-31T08:08:05;11.50;80.50
75769;DHT22;64379;48.888;8.330;2022-10-31T08:10:32;11.50;80.60
75769;DHT22;64379;48.888;8.330;2022-10-31T08:12:59;11.60;80.80
75769;DHT22;64379;48.888;8.330;2022-10-31T08:15:25;11.70;80.30
75769;DHT22;64379;48.888;8.330;2022-10-31T08:17:51;11.70;80.20
75769;DHT22;64379;48.888;8.330;2022-10-31T08:20:16;11.80;80.40
75769;DHT22;64379;48.888;8.330;2022-10-31T08:22:42;11.90;80.50
75769;DHT22;64379;48.888;8.330;2022-10-31T08:25:08;12.00;80.10
75769;DHT22;64379;48.888;8.330;2022-10-31T08:27:34;12.30;80.20
75769;DHT22;64379;48.888;8.330;2022-10-31T08:29:59;12.50;78.30
75769;DHT22;64379;48.888;8.330;2022-10-31T08:32:25;12.70;77.80
75769;DHT22;64379;48.888;8.330;2022-10-31T08:34:51;12.70;77.80
75769;DHT22;64379;48.888;8.330;2022-10-31T08:37:16;12.90;77.70
75769;DHT22;64379;48.888;8.330;2022-10-31T08:39:46;13.10;76.30
75769;DHT22;64379;48.888;8.330;2022-10-31T08:42:12;13.30;75.80
75769;DHT22;64379;48.888;8.330;2022-10-31T08:44:38;13.60;74.80
75769;DHT22;64379;48.888;8.330;2022-10-31T08:47:04;13.70;75.10
75769;DHT22;64379;48.888;8.330;2022-10-31T08:49:29;13.60;74.60
75769;DHT22;64379;48.888;8.330;2022-10-31T08:51:55;13.50;75.60
75769;DHT22;64379;48.888;8.330;2022-10-31T08:54:20;13.60;75.40
75769;DHT22;64379;48.888;8.330;2022-10-31T08:56:46;13.70;75.10
75769;DHT22;64379;48.888;8.330;2022-10-31T08:59:13;13.70;74.80
75769;DHT22;64379;48.888;8.330;2022-10-31T09:01:38;13.60;74.80
75769;DHT22;64379;48.888;8.330;2022-10-31T09:04:04;13.50;74.60
75769;DHT22;64379;48.888;8.330;2022-10-31T09:06:29;13.70;74.50
75769;DHT22;64379;48.888;8.330;2022-10-31T09:08:55;13.70;74.40
75769;DHT22;64379;48.888;8.330;2022-10-31T09:11:20;13.70;75.40
75769;DHT22;64379;48.888;8.330;2022-10-31T09:13:46;13.90;74.40
75769;DHT22;64379;48.888;8.330;2022-10-31T09:16:12;13.90;73.90
75769;DHT22;64379;48.888;8.330;2022-10-31T09:18:37;13.80;74.40
75769;DHT22;64379;48.888;8.330;2022-10-31T09:21:03;13.80;74.10
75769;DHT22;64379;48.888;8.330;2022-10-31T09:23:28;13.90;74.10
75769;DHT22;64379;48.888;8.330;2022-10-31T09:25:54;13.90;75.00
75769;DHT22;64379;48.888;8.330;2022-10-31T09:28:22;14.00;74.80
75769;DHT22;64379;48.888;8.330;2022-10-31T09:30:50;14.20;74.50
75769;DHT22;64379;48.888;8.330;2022-10-31T09:33:17;14.20;74.50
75769;DHT22;64379;48.888;8.330;2022-10-31T09:35:42;14.30;73.80
75769;DHT22;64379;48.888;8.330;2022-10-31T09:38:13;14.20;74.30
75769;DHT22;64379;48.888;8.330;2022-10-31T09:40:44;14.30;74.80
75769;DHT22;64379;48.888;8.330;2022-10-31T09:43:14;14.30;74.50
75769;DHT22;64379;48.888;8.330;2022-10-31T09:51:24;14.90;73.30
75769;DHT22;64379;48.888;8.330;2022-10-31T09:53:55;15.00;73.20
75769;DHT22;64379;48.888;8.330;2022-10-31T09:56:23;15.00;72.00
75769;DHT22;64379;48.888;8.330;2022-10-31T09:58:58;15.00;72.40
75769;DHT22;64379;48.888;8.330;2022-10-31T10:01:48;15.10;72.00
75769;DHT22;64379;48.888;8.330;2022-10-31T10:07:40;15.00;72.20
75769;DHT22;64379;48.888;8.330;2022-10-31T10:13:32;14.80;72.70
75769;DHT22;64379;48.888;8.330;2022-10-31T10:21:30;15.30;71.20
75769;DHT22;64379;48.888;8.330;2022-10-31T10:26:46;15.40;72.10
75769;DHT22;64379;48.888;8.330;2022-10-31T10:29:36;15.40;73.20
75769;DHT22;64379;48.888;8.330;2022-10-31T10:32:17;15.50;71.40
75769;DHT22;64379;48.888;8.330;2022-10-31T10:34:49;15.60;71.80
75769;DHT22;64379;48.888;8.330;2022-10-31T10:37:26;15.60;71.60
75769;DHT22;64379;48.888;8.330;2022-10-31T10:39:56;15.60;71.10
75769;DHT22;64379;48.888;8.330;2022-10-31T10:42:26;15.70;70.50
75769;DHT22;64379;48.888;8.330;2022-10-31T10:45:17;15.80;70.80
75769;DHT22;64379;48.888;8.330;2022-10-31T10:48:41;15.80;71.90
75769;DHT22;64379;48.888;8.330;2022-10-31T10:51:12;15.80;72.40
75769;DHT22;64379;48.888;8.330;2022-10-31T10:54:12;15.80;73.50
75769;DHT22;64379;48.888;8.330;2022-10-31T10:57:01;15.70;73.10
75769;DHT22;64379;48.888;8.330;2022-10-31T10:59:30;15.60;72.20
75769;DHT22;64379;48.888;8.330;2022-10-31T11:01:58;15.60;73.80
75769;DHT22;64379;48.888;8.330;2022-10-31T11:04:33;15.80;71.90
75769;DHT22;64379;48.888;8.330;2022-10-31T11:07:00;16.00;71.40
75769;DHT22;64379;48.888;8.330;2022-10-31T11:09:26;16.10;71.10
75769;DHT22;64379;48.888;8.330;2022-10-31T11:11:52;16.10;70.70
75769;DHT22;64379;48.888;8.330;2022-10-31T11:14:19;16.00;71.10
75769;DHT22;64379;48.888;8.330;2022-10-31T11:17:06;16.00;70.80
75769;DHT22;64379;48.888;8.330;2022-10-31T11:19:34;15.80;70.40
75769;DHT22;64379;48.888;8.330;2022-10-31T11:22:16;15.80;70.30
75769;DHT22;64379;48.888;8.330;2022-10-31T11:24:42;15.80;70.50
75769;DHT22;64379;48.888;8.330;2022-10-31T11:27:19;15.80;70.60
75769;DHT22;64379;48.888;8.330;2022-10-31T11:29:45;16.00;70.30
75769;DHT22;64379;48.888;8.330;2022-10-31T11:32:22;16.10;70.10
75769;DHT22;64379;48.888;8.330;2022-10-31T11:34:57;16.00;69.70
75769;DHT22;64379;48.888;8.330;2022-10-31T11:37:30;16.10;70.50
75769;DHT22;64379;48.888;8.330;2022-10-31T11:40:04;16.20;70.40
75769;DHT22;64379;48.888;8.330;2022-10-31T11:42:39;16.20;70.90
75769;DHT22;64379;48.888;8.330;2022-10-31T11:45:32;16.00;69.80
75769;DHT22;64379;48.888;8.330;2022-10-31T11:48:00;16.10;70.50
75769;DHT22;64379;48.888;8.330;2022-10-31T11:50:40;16.10;69.90
75769;DHT22;64379;48.888;8.330;2022-10-31T11:53:26;16.10;70.00
75769;DHT22;64379;48.888;8.330;2022-10-31T11:56:21;16.10;70.20
75769;DHT22;64379;48.888;8.330;2022-10-31T11:59:02;16.00;70.10
75769;DHT22;64379;48.888;8.330;2022-10-31T12:01:30;16.10;71.40
75769;DHT22;64379;48.888;8.330;2022-10-31T12:04:09;16.10;71.40
75769;DHT22;64379;48.888;8.330;2022-10-31T12:06:40;16.30;71.60
75769;DHT22;64379;48.888;8.330;2022-10-31T12:17:33;16.40;71.90
75769;DHT22;64379;48.888;8.330;2022-10-31T12:23:19;16.50;70.00
75769;DHT22;64379;48.888;8.330;2022-10-31T12:26:08;16.50;70.60
75769;DHT22;64379;48.888;8.330;2022-10-31T12:44:49;16.20;72.40
75769;DHT22;64379;48.888;8.330;2022-10-31T12:50:01;16.70;71.40
75769;DHT22;64379;48.888;8.330;2022-10-31T12:57:50;19.50;59.10
75769;DHT22;64379;48.888;8.330;2022-10-31T13:00:19;20.00;58.40
75769;DHT22;64379;48.888;8.330;2022-10-31T13:05:36;19.70;60.00
75769;DHT22;64379;48.888;8.330;2022-10-31T13:08:22;19.30;61.10
75769;DHT22;64379;48.888;8.330;2022-10-31T13:11:45;19.20;61.40
75769;DHT22;64379;48.888;8.330;2022-10-31T13:16:39;19.00;62.20
75769;DHT22;64379;48.888;8.330;2022-10-31T13:24:20;19.10;62.70
75769;DHT22;64379;48.888;8.330;2022-10-31T13:26:53;19.10;63.10
75769;DHT22;64379;48.888;8.330;2022-10-31T13:29:29;19.10;63.30
75769;DHT22;64379;48.888;8.330;2022-10-31T13:31:56;19.70;61.90
75769;DHT22;64379;48.888;8.330;2022-10-31T13:34:37;20.00;60.60
75769;DHT22;64379;48.888;8.330;2022-10-31T13:37:39;19.80;61.40
75769;DHT22;64379;48.888;8.330;2022-10-31T13:40:33;19.50;62.00
75769;DHT22;64379;48.888;8.330;2022-10-31T13:43:11;19.50;61.60
75769;DHT22;64379;48.888;8.330;2022-10-31T13:45:48;19.50;61.50
75769;DHT22;64379;48.888;8.330;2022-10-31T13:50:41;18.10;64.80
75769;DHT22;64379;48.888;8.330;2022-10-31T13:53:11;17.60;67.40
75769;DHT22;64379;48.888;8.330;2022-10-31T13:58:27;17.40;68.80
75769;DHT22;64379;48.888;8.330;2022-10-31T14:01:16;17.20;69.90
75769;DHT22;64379;48.888;8.330;2022-10-31T14:03:45;17.00;70.30
75769;DHT22;64379;48.888;8.330;2022-10-31T14:06:13;17.00;68.60
75769;DHT22;64379;48.888;8.330;2022-10-31T14:08:46;17.00;70.10
75769;DHT22;64379;48.888;8.330;2022-10-31T14:11:26;17.00;70.60
75769;DHT22;64379;48.888;8.330;2022-10-31T14:13:55;17.00;69.50
75769;DHT22;64379;48.888;8.330;2022-10-31T14:16:28;17.00;69.80
75769;DHT22;64379;48.888;8.330;2022-10-31T14:19:07;16.90;70.80
75769;DHT22;64379;48.888;8.330;2022-10-31T14:21:39;16.90;71.60
75769;DHT22;64379;48.888;8.330;2022-10-31T14:29:24;17.00;71.30
75769;DHT22;64379;48.888;8.330;2022-10-31T14:31:57;17.00;70.30
75769;DHT22;64379;48.888;8.330;2022-10-31T14:34:35;17.20;69.10
75769;DHT22;64379;48.888;8.330;2022-10-31T14:52:51;16.80;70.50
75769;DHT22;64379;48.888;8.330;2022-10-31T14:55:18;16.70;71.00
75769;DHT22;64379;48.888;8.330;2022-10-31T14:57:57;16.70;71.70
75769;DHT22;64379;48.888;8.330;2022-10-31T15:00:23;16.60;72.00
75769;DHT22;64379;48.888;8.330;2022-10-31T15:05:32;16.40;72.50
75769;DHT22;64379;48.888;8.330;2022-10-31T15:07:59;16.40;72.90
75769;DHT22;64379;48.888;8.330;2022-10-31T15:10:31;16.40;73.20
75769;DHT22;64379;48.888;8.330;2022-10-31T15:13:09;16.30;73.50
75769;DHT22;64379;48.888;8.330;2022-10-31T15:15:36;16.00;74.90
75769;DHT22;64379;48.888;8.330;2022-10-31T15:18:04;15.80;76.00
75769;DHT22;64379;48.888;8.330;2022-10-31T15:20:36;15.80;75.20
75769;DHT22;64379;48.888;8.330;2022-10-31T15:23:03;16.00;74.40
75769;DHT22;64379;48.888;8.330;2022-10-31T15:25:33;16.00;74.40
75769;DHT22;64379;48.888;8.330;2022-10-31T15:27:58;15.80;75.40
75769;DHT22;64379;48.888;8.330;2022-10-31T15:30:28;15.70;75.20
75769;DHT22;64379;48.888;8.330;2022-10-31T15:32:54;15.60;76.00
75769;DHT22;64379;48.888;8.330;2022-10-31T15:35:23;15.60;76.10
75769;DHT22;64379;48.888;8.330;2022-10-31T15:37:51;15.60;76.70
75769;DHT22;64379;48.888;8.330;2022-10-31T15:40:19;15.60;75.70
75769;DHT22;64379;48.888;8.330;2022-10-31T15:42:56;15.60;75.40
75769;DHT22;64379;48.888;8.330;2022-10-31T15:45:25;15.60;76.90
75769;DHT22;64379;48.888;8.330;2022-10-31T15:47:57;15.40;76.50
75769;DHT22;64379;48.888;8.330;2022-10-31T15:52:49;15.40;76.80
75769;DHT22;64379;48.888;8.330;2022-10-31T15:55:17;15.40;76.20
75769;DHT22;64379;48.888;8.330;2022-10-31T15:57:46;15.40;77.10
75769;DHT22;64379;48.888;8.330;2022-10-31T16:00:28;15.20;77.50
75769;DHT22;64379;48.888;8.330;2022-10-31T16:05:44;15.30;76.90
75769;DHT22;64379;48.888;8.330;2022-10-31T16:10:54;15.60;75.50
75769;DHT22;64379;48.888;8.330;2022-10-31T16:13:25;15.50;75.30
75769;DHT22;64379;48.888;8.330;2022-10-31T16:16:00;15.40;75.90
75769;DHT22;64379;48.888;8.330;2022-10-31T16:18:28;15.40;76.20
75769;DHT22;64379;48.888;8.330;2022-10-31T16:20:55;15.30;76.10
75769;DHT22;64379;48.888;8.330;2022-10-31T16:23:23;15.20;76.40
75769;DHT22;64379;48.888;8.330;2022-10-31T16:25:50;15.20;76.60
75769;DHT22;64379;48.888;8.330;2022-10-31T16:28:26;15.10;77.10
75769;DHT22;64379;48.888;8.330;2022-10-31T16:30:54;15.00;77.90
75769;DHT22;64379;48.888;8.330;2022-10-31T16:33:32;15.00;77.20
75769;DHT22;64379;48.888;8.330;2022-10-31T16:38:45;15.10;77.70
75769;DHT22;64379;48.888;8.330;2022-10-31T16:41:11;14.90;77.90
75769;DHT22;64379;48.888;8.330;2022-10-31T16:43:36;14.90;77.70
75769;DHT22;64379;48.888;8.330;2022-10-31T16:46:03;14.80;78.10
75769;DHT22;64379;48.888;8.330;2022-10-31T16:48:29;14.70;78.30
75769;DHT22;64379;48.888;8.330;2022-10-31T16:50:57;14.80;78.20
75769;DHT22;64379;48.888;8.330;2022-10-31T16:53:23;14.80;78.00
75769;DHT22;64379;48.888;8.330;2022-10-31T16:55:55;14.70;78.20
75769;DHT22;64379;48.888;8.330;2022-10-31T16:58:24;14.60;79.30
75769;DHT22;64379;48.888;8.330;2022-10-31T17:00:51;14.50;79.50
75769;DHT22;64379;48.888;8.330;2022-10-31T17:03:18;14.40;79.70
75769;DHT22;64379;48.888;8.330;2022-10-31T17:05:44;14.30;79.90
75769;DHT22;64379;48.888;8.330;2022-10-31T17:08:10;14.20;80.20
75769;DHT22;64379;48.888;8.330;2022-10-31T17:10:36;14.40;79.50
75769;DHT22;64379;48.888;8.330;2022-10-31T17:13:03;14.50;79.50
75769;DHT22;64379;48.888;8.330;2022-10-31T17:15:37;14.40;79.20
75769;DHT22;64379;48.888;8.330;2022-10-31T17:18:04;14.40;79.40
75769;DHT22;64379;48.888;8.330;2022-10-31T17:20:30;14.40;79.20
75769;DHT22;64379;48.888;8.330;2022-10-31T17:22:57;14.30;79.80
75769;DHT22;64379;48.888;8.330;2022-10-31T17:25:28;14.30;79.60
75769;DHT22;64379;48.888;8.330;2022-10-31T17:27:57;14.20;79.90
75769;DHT22;64379;48.888;8.330;2022-10-31T17:30:24;14.00;80.20
75769;DHT22;64379;48.888;8.330;2022-10-31T17:32:50;14.00;80.80
75769;DHT22;64379;48.888;8.330;2022-10-31T17:35:16;13.90;80.80
75769;DHT22;64379;48.888;8.330;2022-10-31T17:37:43;14.00;80.60
75769;DHT22;64379;48.888;8.330;2022-10-31T17:40:10;13.90;81.00
75769;DHT22;64379;48.888;8.330;2022-10-31T17:42:36;13.70;81.20
75769;DHT22;64379;48.888;8.330;2022-10-31T17:45:02;13.70;81.40
75769;DHT22;64379;48.888;8.330;2022-10-31T17:47:27;13.90;81.20
75769;DHT22;64379;48.888;8.330;2022-10-31T17:49:53;13.90;81.10
75769;DHT22;64379;48.888;8.330;2022-10-31T17:52:19;13.90;81.20
75769;DHT22;64379;48.888;8.330;2022-10-31T17:54:45;13.80;81.10
75769;DHT22;64379;48.888;8.330;2022-10-31T17:57:10;13.70;81.60
75769;DHT22;64379;48.888;8.330;2022-10-31T17:59:36;13.60;81.50
75769;DHT22;64379;48.888;8.330;2022-10-31T18:02:02;13.50;81.80
75769;DHT22;64379;48.888;8.330;2022-10-31T18:04:36;13.50;82.10
75769;DHT22;64379;48.888;8.330;2022-10-31T18:07:02;13.50;82.10
75769;DHT22;64379;48.888;8.330;2022-10-31T18:09:28;13.50;82.10